sensor_id;sensor_type;location;lat;lon;timestamp;temperature;humidity
3816;DHT22;1923;48.154;11.536;2023-01-28T00:01:55;0.90;99.90
3816;DHT22;1923;48.154;11.536;2023-01-28T00:04:23;0.80;99.90
3816;DHT22;1923;48.154;11.536;2023-01-28T00:06:51;0.80;99.90
3816;DHT22;1923;48.154;11.536;2023-01-28T00:09:19;0.80;99.90
3816;DHT22;1923;48.154;11.536;2023-01-28T00:11:47;0.80;99.90
3816;DHT22;1923;48.154;11.536;2023-01-28T00:14:16;0.80;99.90
3816;DHT22;1923;48.154;11.536;2023-01-28T00:16:45;0.90;99.90
3816;DHT22;1923;48.154;11.536;2023-01-28T00:19:13;0.90;99.90
3816;DHT22;1923;48.154;11.536;2023-01-28T00:21:41;0.90;99.90
3816;DHT22;1923;48.154;11.536;2023-01-28T00:24:09;1.00;99.90
3816;DHT22;1923;48.154;11.536;2023-01-28T00:26:38;0.90;99.90
3816;DHT22;1923;48.154;11.536;2023-01-28T00:29:06;0.90;99.90
3816;DHT22;1923;48.154;11.536;2023-01-28T00:31:34;1.00;99.90
3816;DHT22;1923;48.154;11.536;2023-01-28T00:34:04;1.00;99.90
3816;DHT22;1923;48.154;11.536;2023-01-28T00:36:33;0.90;99.90
3816;DHT22;1923;48.154;11.536;2023-01-28T00:39:05;0.90;99.90
3816;DHT22;1923;48.154;11.536;2023-01-28T00:41:33;0.90;99.90
3816;DHT22;1923;48.154;11.536;2023-01-28T00:44:01;0.70;99.90
3816;DHT22;1923;48.154;11.536;2023-01-28T00:46:30;0.60;99.90
3816;DHT22;1923;48.154;11.536;2023-01-28T00:48:58;0.60;99.90
3816;DHT22;1923;48.154;11.536;2023-01-28T00:51:27;0.50;99.90
3816;DHT22;1923;48.154;11.536;2023-01-28T00:53:55;0.60;99.90
3816;DHT22;1923;48.154;11.536;2023-01-28T00:56:23;0.60;99.90
3816;DHT22;1923;48.154;11.536;2023-01-28T00:58:51;0.60;99.90
3816;DHT22;1923;48.154;11.536;2023-01-28T01:01:23;0.60;99.90
3816;DHT22;1923;48.154;11.536;2023-01-28T01:03:53;0.70;99.90
3816;DHT22;1923;48.154;11.536;2023-01-28T01:06:31;0.60;99.90
3816;DHT22;1923;48.154;11.536;2023-01-28T01:09:00;0.70;99.90
3816;DHT22;1923;48.154;11.536;2023-01-28T01:11:28;0.70;99.90
3816;DHT22;1923;48.154;11.536;2023-01-28T01:13:58;0.50;99.90
3816;DHT22;1923;48.154;11.536;2023-01-28T01:16:27;0.50;99.90
3816;DHT22;1923;48.154;11.536;2023-01-28T01:18:56;0.50;99.90
3816;DHT22;1923;48.154;11.536;2023-01-28T01:21:26;0.50;99.90
3816;DHT22;1923;48.154;11.536;2023-01-28T01:23:56;0.50;99.90
3816;DHT22;1923;48.154;11.536;2023-01-28T01:26:24;0.50;99.90
3816;DHT22;1923;48.154;11.536;2023-01-28T01:28:53;0.30;99.90
3816;DHT22;1923;48.154;11.536;2023-01-28T01:31:22;0.30;99.90
3816;DHT22;1923;48.154;11.536;2023-01-28T01:33:50;0.20;99.90
3816;DHT22;1923;48.154;11.536;2023-01-28T01:36:19;0.30;99.90
3816;DHT22;1923;48.154;11.536;2023-01-28T01:38:52;0.30;99.90
3816;DHT22;1923;48.154;11.536;2023-01-28T01:41:27;0.20;99.90
3816;DHT22;1923;48.154;11.536;2023-01-28T01:43:58;0.30;99.90
3816;DHT22;1923;48.154;11.536;2023-01-28T01:46:31;0.50;99.90
3816;DHT22;1923;48.154;11.536;2023-01-28T01:49:11;0.50;99.90
3816;DHT22;1923;48.154;11.536;2023-01-28T01:51:43;0.50;99.90
3816;DHT22;1923;48.154;11.536;2023-01-28T01:54:12;0.50;99.90
3816;DHT22;1923;48.154;11.536;2023-01-28T01:56:43;0.60;99.90
3816;DHT22;1923;48.154;11.536;2023-01-28T01:59:19;0.60;99.90
3816;DHT22;1923;48.154;11.536;2023-01-28T02:01:48;0.70;99.90
3816;DHT22;1923;48.154;11.536;2023-01-28T02:04:19;0.60;99.90
3816;DHT22;1923;48.154;11.536;2023-01-28T02:06:49;0.60;99.90
3816;DHT22;1923;48.154;11.536;2023-01-28T02:09:22;0.60;99.90
3816;DHT22;1923;48.154;11.536;2023-01-28T02:11:55;0.50;99.90
3816;DHT22;1923;48.154;11.536;2023-01-28T02:14:25;0.60;99.90
3816;DHT22;1923;48.154;11.536;2023-01-28T02:16:57;0.60;99.90
3816;DHT22;1923;48.154;11.536;2023-01-28T02:19:31;0.60;99.90
3816;DHT22;1923;48.154;11.536;2023-01-28T02:22:30;0.30;99.90
3816;DHT22;1923;48.154;11.536;2023-01-28T02:25:33;0.40;99.90
3816;DHT22;1923;48.154;11.536;2023-01-28T02:28:22;0.30;99.90
3816;DHT22;1923;48.154;11.536;2023-01-28T02:30:54;0.30;99.90
3816;DHT22;1923;48.154;11.536;2023-01-28T02:33:28;0.20;99.90
3816;DHT22;1923;48.154;11.536;2023-01-28T02:36:02;0.30;99.90
3816;DHT22;1923;48.154;11.536;2023-01-28T02:38:38;0.40;99.90
3816;DHT22;1923;48.154;11.536;2023-01-28T02:41:12;0.40;99.90
3816;DHT22;1923;48.154;11.536;2023-01-28T02:46:35;0.40;99.90
3816;DHT22;1923;48.154;11.536;2023-01-28T02:49:25;0.20;99.90
3816;DHT22;1923;48.154;11.536;2023-01-28T02:52:14;0.30;99.90
3816;DHT22;1923;48.154;11.536;2023-01-28T02:54:54;0.20;99.90
3816;DHT22;1923;48.154;11.536;2023-01-28T02:57:29;0.10;99.90
3816;DHT22;1923;48.154;11.536;2023-01-28T03:00:09;0.10;99.90
3816;DHT22;1923;48.154;11.536;2023-01-28T03:02:43;0.10;99.90
3816;DHT22;1923;48.154;11.536;2023-01-28T03:05:16;0.20;99.90
3816;DHT22;1923;48.154;11.536;2023-01-28T03:07:48;0.00;99.90
3816;DHT22;1923;48.154;11.536;2023-01-28T03:10:19;0.10;99.90
3816;DHT22;1923;48.154;11.536;2023-01-28T03:12:50;0.20;99.90
3816;DHT22;1923;48.154;11.536;2023-01-28T03:15:39;0.20;99.90
3816;DHT22;1923;48.154;11.536;2023-01-28T03:18:30;0.30;99.90
3816;DHT22;1923;48.154;11.536;2023-01-28T03:21:20;0.40;99.90
3816;DHT22;1923;48.154;11.536;2023-01-28T03:24:10;0.40;99.90
3816;DHT22;1923;48.154;11.536;2023-01-28T03:27:02;0.30;99.90
3816;DHT22;1923;48.154;11.536;2023-01-28T03:29:51;0.30;99.90
3816;DHT22;1923;48.154;11.536;2023-01-28T03:32:40;0.40;99.90
3816;DHT22;1923;48.154;11.536;2023-01-28T03:35:30;0.20;99.90
3816;DHT22;1923;48.154;11.536;2023-01-28T03:38:18;0.30;99.90
3816;DHT22;1923;48.154;11.536;2023-01-28T03:40:49;0.30;99.90
3816;DHT22;1923;48.154;11.536;2023-01-28T03:43:18;0.30;99.90
3816;DHT22;1923;48.154;11.536;2023-01-28T03:45:46;0.50;99.90
3816;DHT22;1923;48.154;11.536;2023-01-28T03:48:17;0.40;99.90
3816;DHT22;1923;48.154;11.536;2023-01-28T03:50:47;0.30;99.90
3816;DHT22;1923;48.154;11.536;2023-01-28T03:53:16;0.10;99.90
3816;DHT22;1923;48.154;11.536;2023-01-28T03:55:45;0.30;99.90
3816;DHT22;1923;48.154;11.536;2023-01-28T03:58:14;0.30;99.90
3816;DHT22;1923;48.154;11.536;2023-01-28T04:00:42;0.30;99.90
3816;DHT22;1923;48.154;11.536;2023-01-28T04:03:11;0.20;99.90
3816;DHT22;1923;48.154;11.536;2023-01-28T04:05:42;0.40;99.90
3816;DHT22;1923;48.154;11.536;2023-01-28T04:08:12;0.50;99.90
3816;DHT22;1923;48.154;11.536;2023-01-28T04:10:40;0.50;99.90
3816;DHT22;1923;48.154;11.536;2023-01-28T04:13:09;0.60;99.90
3816;DHT22;1923;48.154;11.536;2023-01-28T04:15:39;0.50;99.90
3816;DHT22;1923;48.154;11.536;2023-01-28T04:18:07;0.50;99.90
3816;DHT22;1923;48.154;11.536;2023-01-28T04:20:35;0.50;99.90
3816;DHT22;1923;48.154;11.536;2023-01-28T04:23:04;0.50;99.90
3816;DHT22;1923;48.154;11.536;2023-01-28T04:25:34;0.50;99.90
3816;DHT22;1923;48.154;11.536;2023-01-28T04:28:02;0.30;99.90
3816;DHT22;1923;48.154;11.536;2023-01-28T04:30:30;0.40;99.90
3816;DHT22;1923;48.154;11.536;2023-01-28T04:32:58;0.40;99.90
3816;DHT22;1923;48.154;11.536;2023-01-28T04:35:26;0.50;99.90
3816;DHT22;1923;48.154;11.536;2023-01-28T04:37:54;0.50;99.90
3816;DHT22;1923;48.154;11.536;2023-01-28T04:40:22;0.50;99.90
3816;DHT22;1923;48.154;11.536;2023-01-28T04:42:55;0.50;99.90
3816;DHT22;1923;48.154;11.536;2023-01-28T04:45:23;0.60;99.90
3816;DHT22;1923;48.154;11.536;2023-01-28T04:47:51;0.60;99.90
3816;DHT22;1923;48.154;11.536;2023-01-28T04:50:19;0.50;99.90
3816;DHT22;1923;48.154;11.536;2023-01-28T04:52:47;0.20;99.90
3816;DHT22;1923;48.154;11.536;2023-01-28T04:55:15;0.40;99.90
3816;DHT22;1923;48.154;11.536;2023-01-28T04:57:45;0.30;99.90
3816;DHT22;1923;48.154;11.536;2023-01-28T05:00:16;0.30;99.90
3816;DHT22;1923;48.154;11.536;2023-01-28T05:02:45;0.40;99.90
3816;DHT22;1923;48.154;11.536;2023-01-28T05:05:13;0.40;99.90
3816;DHT22;1923;48.154;11.536;2023-01-28T05:07:42;0.50;99.90
3816;DHT22;1923;48.154;11.536;2023-01-28T05:10:10;0.50;99.90
3816;DHT22;1923;48.154;11.536;2023-01-28T05:12:38;0.40;99.90
3816;DHT22;1923;48.154;11.536;2023-01-28T05:15:07;0.50;99.90
3816;DHT22;1923;48.154;11.536;2023-01-28T05:17:36;0.40;99.90
3816;DHT22;1923;48.154;11.536;2023-01-28T05:20:05;0.50;99.90
3816;DHT22;1923;48.154;11.536;2023-01-28T05:22:33;0.30;99.90
3816;DHT22;1923;48.154;11.536;2023-01-28T05:25:01;0.50;99.90
3816;DHT22;1923;48.154;11.536;2023-01-28T05:27:30;0.50;99.90
3816;DHT22;1923;48.154;11.536;2023-01-28T05:29:59;0.30;99.90
3816;DHT22;1923;48.154;11.536;2023-01-28T05:32:27;0.40;99.90
3816;DHT22;1923;48.154;11.536;2023-01-28T05:34:56;0.40;99.90
3816;DHT22;1923;48.154;11.536;2023-01-28T05:37:24;0.30;99.90
3816;DHT22;1923;48.154;11.536;2023-01-28T05:39:52;0.40;99.90
3816;DHT22;1923;48.154;11.536;2023-01-28T05:42:20;0.50;99.90
3816;DHT22;1923;48.154;11.536;2023-01-28T05:44:48;0.30;99.90
3816;DHT22;1923;48.154;11.536;2023-01-28T05:47:16;0.20;99.90
3816;DHT22;1923;48.154;11.536;2023-01-28T05:49:44;0.30;99.90
3816;DHT22;1923;48.154;11.536;2023-01-28T05:52:14;0.40;99.90
3816;DHT22;1923;48.154;11.536;2023-01-28T05:54:42;0.30;99.90
3816;DHT22;1923;48.154;11.536;2023-01-28T05:57:10;0.40;99.90
3816;DHT22;1923;48.154;11.536;2023-01-28T05:59:38;0.40;99.90
3816;DHT22;1923;48.154;11.536;2023-01-28T06:02:06;0.40;99.90
3816;DHT22;1923;48.154;11.536;2023-01-28T06:04:34;0.50;99.90
3816;DHT22;1923;48.154;11.536;2023-01-28T06:07:02;0.50;99.90
3816;DHT22;1923;48.154;11.536;2023-01-28T06:09:32;0.50;99.90
3816;DHT22;1923;48.154;11.536;2023-01-28T06:11:59;0.50;99.90
3816;DHT22;1923;48.154;11.536;2023-01-28T06:14:28;0.60;99.90
3816;DHT22;1923;48.154;11.536;2023-01-28T06:16:55;0.70;99.90
3816;DHT22;1923;48.154;11.536;2023-01-28T06:19:23;0.70;99.90
3816;DHT22;1923;48.154;11.536;2023-01-28T06:21:52;0.60;99.90
3816;DHT22;1923;48.154;11.536;2023-01-28T06:24:20;0.60;99.90
3816;DHT22;1923;48.154;11.536;2023-01-28T06:26:49;0.50;99.90
3816;DHT22;1923;48.154;11.536;2023-01-28T06:29:17;0.40;99.90
3816;DHT22;1923;48.154;11.536;2023-01-28T06:31:46;0.50;99.90
3816;DHT22;1923;48.154;11.536;2023-01-28T06:34:14;0.20;99.90
3816;DHT22;1923;48.154;11.536;2023-01-28T06:36:42;0.10;99.90
3816;DHT22;1923;48.154;11.536;2023-01-28T06:39:10;0.00;99.90
3816;DHT22;1923;48.154;11.536;2023-01-28T06:41:39;0.20;99.90
3816;DHT22;1923;48.154;11.536;2023-01-28T06:44:08;0.20;99.90
3816;DHT22;1923;48.154;11.536;2023-01-28T06:46:36;0.30;99.90
3816;DHT22;1923;48.154;11.536;2023-01-28T06:49:04;0.60;99.90
3816;DHT22;1923;48.154;11.536;2023-01-28T06:51:32;0.50;99.90
3816;DHT22;1923;48.154;11.536;2023-01-28T06:54:00;0.50;99.90
3816;DHT22;1923;48.154;11.536;2023-01-28T06:56:28;0.50;99.90
3816;DHT22;1923;48.154;11.536;2023-01-28T06:58:56;0.70;99.90
3816;DHT22;1923;48.154;11.536;2023-01-28T07:01:26;0.50;99.90
3816;DHT22;1923;48.154;11.536;2023-01-28T07:03:55;0.50;99.90
3816;DHT22;1923;48.154;11.536;2023-01-28T07:06:23;0.50;99.90
3816;DHT22;1923;48.154;11.536;2023-01-28T07:08:51;0.50;99.90
3816;DHT22;1923;48.154;11.536;2023-01-28T07:11:19;0.50;99.90
3816;DHT22;1923;48.154;11.536;2023-01-28T07:13:47;0.50;99.90
3816;DHT22;1923;48.154;11.536;2023-01-28T07:16:15;0.50;99.90
3816;DHT22;1923;48.154;11.536;2023-01-28T07:18:44;0.50;99.90
3816;DHT22;1923;48.154;11.536;2023-01-28T07:21:13;0.60;99.90
3816;DHT22;1923;48.154;11.536;2023-01-28T07:23:41;0.60;99.90
3816;DHT22;1923;48.154;11.536;2023-01-28T07:26:09;0.70;99.90
3816;DHT22;1923;48.154;11.536;2023-01-28T07:28:37;0.80;99.90
3816;DHT22;1923;48.154;11.536;2023-01-28T07:31:05;0.80;99.90
3816;DHT22;1923;48.154;11.536;2023-01-28T07:33:33;0.80;99.90
3816;DHT22;1923;48.154;11.536;2023-01-28T07:36:03;0.60;99.90
3816;DHT22;1923;48.154;11.536;2023-01-28T07:38:31;0.60;99.90
3816;DHT22;1923;48.154;11.536;2023-01-28T07:40:59;0.60;99.90
3816;DHT22;1923;48.154;11.536;2023-01-28T07:43:27;0.60;99.90
3816;DHT22;1923;48.154;11.536;2023-01-28T07:45:55;0.60;99.90
3816;DHT22;1923;48.154;11.536;2023-01-28T07:48:26;0.40;99.90
3816;DHT22;1923;48.154;11.536;2023-01-28T07:50:57;0.50;99.90
3816;DHT22;1923;48.154;11.536;2023-01-28T07:53:27;0.40;99.90
3816;DHT22;1923;48.154;11.536;2023-01-28T07:55:58;0.40;99.90
3816;DHT22;1923;48.154;11.536;2023-01-28T07:58:26;0.50;99.90
3816;DHT22;1923;48.154;11.536;2023-01-28T08:00:56;0.50;99.90
3816;DHT22;1923;48.154;11.536;2023-01-28T08:03:25;0.40;99.90
3816;DHT22;1923;48.154;11.536;2023-01-28T08:05:55;0.60;99.90
3816;DHT22;1923;48.154;11.536;2023-01-28T08:08:24;0.60;99.90
3816;DHT22;1923;48.154;11.536;2023-01-28T08:10:54;0.50;99.90
3816;DHT22;1923;48.154;11.536;2023-01-28T08:13:22;0.60;99.90
3816;DHT22;1923;48.154;11.536;2023-01-28T08:15:54;0.50;99.90
3816;DHT22;1923;48.154;11.536;2023-01-28T08:18:22;0.60;99.90
3816;DHT22;1923;48.154;11.536;2023-01-28T08:20:54;0.70;99.90
3816;DHT22;1923;48.154;11.536;2023-01-28T08:23:22;0.60;99.90
3816;DHT22;1923;48.154;11.536;2023-01-28T08:25:54;0.70;99.90
3816;DHT22;1923;48.154;11.536;2023-01-28T08:28:21;0.70;99.90
3816;DHT22;1923;48.154;11.536;2023-01-28T08:30:49;0.80;99.90
3816;DHT22;1923;48.154;11.536;2023-01-28T08:33:18;0.80;99.90
3816;DHT22;1923;48.154;11.536;2023-01-28T08:35:46;0.80;99.90
3816;DHT22;1923;48.154;11.536;2023-01-28T08:38:14;0.80;99.90
3816;DHT22;1923;48.154;11.536;2023-01-28T08:40:43;0.50;99.90
3816;DHT22;1923;48.154;11.536;2023-01-28T08:43:12;0.60;99.90
3816;DHT22;1923;48.154;11.536;2023-01-28T08:45:41;0.60;99.90
3816;DHT22;1923;48.154;11.536;2023-01-28T08:48:11;0.70;99.90
3816;DHT22;1923;48.154;11.536;2023-01-28T08:50:41;0.80;99.90
3816;DHT22;1923;48.154;11.536;2023-01-28T08:53:15;0.90;99.90
3816;DHT22;1923;48.154;11.536;2023-01-28T08:55:44;1.00;99.90
3816;DHT22;1923;48.154;11.536;2023-01-28T08:58:16;0.90;99.90
3816;DHT22;1923;48.154;11.536;2023-01-28T09:00:44;1.00;99.90
3816;DHT22;1923;48.154;11.536;2023-01-28T09:03:12;1.00;99.90
3816;DHT22;1923;48.154;11.536;2023-01-28T09:05:41;1.10;99.90
3816;DHT22;1923;48.154;11.536;2023-01-28T09:08:11;1.20;99.90
3816;DHT22;1923;48.154;11.536;2023-01-28T09:10:40;1.20;99.90
3816;DHT22;1923;48.154;11.536;2023-01-28T09:13:10;1.20;99.90
3816;DHT22;1923;48.154;11.536;2023-01-28T09:15:40;1.10;99.90
3816;DHT22;1923;48.154;11.536;2023-01-28T09:18:08;1.10;99.90
3816;DHT22;1923;48.154;11.536;2023-01-28T09:20:37;1.30;99.90
3816;DHT22;1923;48.154;11.536;2023-01-28T09:23:06;1.10;99.90
3816;DHT22;1923;48.154;11.536;2023-01-28T09:25:34;1.20;99.90
3816;DHT22;1923;48.154;11.536;2023-01-28T09:28:03;1.10;99.90
3816;DHT22;1923;48.154;11.536;2023-01-28T09:30:31;1.20;99.90
3816;DHT22;1923;48.154;11.536;2023-01-28T09:33:05;1.20;99.90
3816;DHT22;1923;48.154;11.536;2023-01-28T09:35:33;1.40;99.90
3816;DHT22;1923;48.154;11.536;2023-01-28T09:38:02;1.20;99.90
3816;DHT22;1923;48.154;11.536;2023-01-28T09:40:36;1.40;99.90
3816;DHT22;1923;48.154;11.536;2023-01-28T09:43:22;1.40;99.90
3816;DHT22;1923;48.154;11.536;2023-01-28T09:45:56;1.60;99.90
3816;DHT22;1923;48.154;11.536;2023-01-28T09:48:30;1.80;99.90
3816;DHT22;1923;48.154;11.536;2023-01-28T09:51:00;2.00;99.90
3816;DHT22;1923;48.154;11.536;2023-01-28T09:53:30;1.90;99.90
3816;DHT22;1923;48.154;11.536;2023-01-28T09:56:02;1.90;99.90
3816;DHT22;1923;48.154;11.536;2023-01-28T09:58:31;2.00;99.90
3816;DHT22;1923;48.154;11.536;2023-01-28T10:01:03;2.20;99.90
3816;DHT22;1923;48.154;11.536;2023-01-28T10:03:44;2.00;99.90
3816;DHT22;1923;48.154;11.536;2023-01-28T10:06:25;2.20;99.90
3816;DHT22;1923;48.154;11.536;2023-01-28T10:09:18;2.30;99.90
3816;DHT22;1923;48.154;11.536;2023-01-28T10:11:58;2.50;99.90
3816;DHT22;1923;48.154;11.536;2023-01-28T10:14:40;2.70;99.90
3816;DHT22;1923;48.154;11.536;2023-01-28T10:17:15;2.70;99.90
3816;DHT22;1923;48.154;11.536;2023-01-28T10:19:49;2.70;99.90
3816;DHT22;1923;48.154;11.536;2023-01-28T10:22:22;2.80;99.90
3816;DHT22;1923;48.154;11.536;2023-01-28T10:24:54;3.00;99.90
3816;DHT22;1923;48.154;11.536;2023-01-28T10:27:28;3.30;99.90
3816;DHT22;1923;48.154;11.536;2023-01-28T10:29:59;3.60;99.90
3816;DHT22;1923;48.154;11.536;2023-01-28T10:32:29;3.50;99.90
3816;DHT22;1923;48.154;11.536;2023-01-28T10:34:59;3.50;99.90
3816;DHT22;1923;48.154;11.536;2023-01-28T10:37:32;3.60;99.90
3816;DHT22;1923;48.154;11.536;2023-01-28T10:40:02;3.40;99.90
3816;DHT22;1923;48.154;11.536;2023-01-28T10:42:32;3.50;99.90
3816;DHT22;1923;48.154;11.536;2023-01-28T10:45:04;3.20;99.90
3816;DHT22;1923;48.154;11.536;2023-01-28T10:47:37;3.20;99.90
3816;DHT22;1923;48.154;11.536;2023-01-28T10:50:14;3.40;99.90
3816;DHT22;1923;48.154;11.536;2023-01-28T10:52:54;3.60;99.90
3816;DHT22;1923;48.154;11.536;2023-01-28T10:55:24;3.60;99.90
3816;DHT22;1923;48.154;11.536;2023-01-28T10:57:53;3.50;99.90
3816;DHT22;1923;48.154;11.536;2023-01-28T11:00:25;3.70;99.90
3816;DHT22;1923;48.154;11.536;2023-01-28T11:02:54;3.60;99.90
3816;DHT22;1923;48.154;11.536;2023-01-28T11:05:25;3.40;99.90
3816;DHT22;1923;48.154;11.536;2023-01-28T11:08:09;3.60;99.90
3816;DHT22;1923;48.154;11.536;2023-01-28T11:10:39;3.70;99.90
3816;DHT22;1923;48.154;11.536;2023-01-28T11:13:15;3.70;99.90
3816;DHT22;1923;48.154;11.536;2023-01-28T11:15:47;4.00;99.90
3816;DHT22;1923;48.154;11.536;2023-01-28T11:18:17;4.30;99.90
3816;DHT22;1923;48.154;11.536;2023-01-28T11:20:53;4.50;99.90
3816;DHT22;1923;48.154;11.536;2023-01-28T11:23:26;4.60;99.90
3816;DHT22;1923;48.154;11.536;2023-01-28T11:26:04;4.50;99.90
3816;DHT22;1923;48.154;11.536;2023-01-28T11:28:34;4.20;99.90
3816;DHT22;1923;48.154;11.536;2023-01-28T11:31:03;3.90;99.90
3816;DHT22;1923;48.154;11.536;2023-01-28T11:33:35;3.80;99.90
3816;DHT22;1923;48.154;11.536;2023-01-28T11:36:10;3.70;99.90
3816;DHT22;1923;48.154;11.536;2023-01-28T11:38:48;3.40;99.90
3816;DHT22;1923;48.154;11.536;2023-01-28T11:41:16;3.50;99.90
3816;DHT22;1923;48.154;11.536;2023-01-28T11:43:45;3.50;99.90
3816;DHT22;1923;48.154;11.536;2023-01-28T11:46:24;3.30;99.90
3816;DHT22;1923;48.154;11.536;2023-01-28T11:49:07;3.30;99.90
3816;DHT22;1923;48.154;11.536;2023-01-28T11:51:42;3.10;99.90
3816;DHT22;1923;48.154;11.536;2023-01-28T11:54:26;3.10;99.90
3816;DHT22;1923;48.154;11.536;2023-01-28T11:57:10;3.40;99.90
3816;DHT22;1923;48.154;11.536;2023-01-28T11:59:55;3.20;99.90
3816;DHT22;1923;48.154;11.536;2023-01-28T12:02:42;3.40;99.90
3816;DHT22;1923;48.154;11.536;2023-01-28T12:05:39;3.60;99.90
3816;DHT22;1923;48.154;11.536;2023-01-28T12:08:17;3.60;99.90
3816;DHT22;1923;48.154;11.536;2023-01-28T12:10:56;3.60;99.90
3816;DHT22;1923;48.154;11.536;2023-01-28T12:13:36;3.60;99.90
3816;DHT22;1923;48.154;11.536;2023-01-28T12:16:17;3.60;99.90
3816;DHT22;1923;48.154;11.536;2023-01-28T12:19:13;3.60;99.90
3816;DHT22;1923;48.154;11.536;2023-01-28T12:22:05;3.50;99.90
3816;DHT22;1923;48.154;11.536;2023-01-28T12:24:49;3.30;99.90
3816;DHT22;1923;48.154;11.536;2023-01-28T12:27:31;3.40;99.90
3816;DHT22;1923;48.154;11.536;2023-01-28T12:30:09;3.30;99.90
3816;DHT22;1923;48.154;11.536;2023-01-28T12:32:51;3.20;99.90
3816;DHT22;1923;48.154;11.536;2023-01-28T12:35:41;3.00;99.90
3816;DHT22;1923;48.154;11.536;2023-01-28T12:38:26;2.90;99.90
3816;DHT22;1923;48.154;11.536;2023-01-28T12:41:02;2.90;99.90
3816;DHT22;1923;48.154;11.536;2023-01-28T12:43:46;2.80;99.90
3816;DHT22;1923;48.154;11.536;2023-01-28T12:49:09;2.50;99.90
3816;DHT22;1923;48.154;11.536;2023-01-28T12:51:51;2.40;99.90
3816;DHT22;1923;48.154;11.536;2023-01-28T12:54:26;2.50;99.90
3816;DHT22;1923;48.154;11.536;2023-01-28T12:56:57;2.50;99.90
3816;DHT22;1923;48.154;11.536;2023-01-28T12:59:29;2.40;99.90
3816;DHT22;1923;48.154;11.536;2023-01-28T13:02:05;2.40;99.90
3816;DHT22;1923;48.154;11.536;2023-01-28T13:04:44;2.30;99.90
3816;DHT22;1923;48.154;11.536;2023-01-28T13:07:19;2.40;99.90
3816;DHT22;1923;48.154;11.536;2023-01-28T13:09:52;2.30;99.90
3816;DHT22;1923;48.154;11.536;2023-01-28T13:12:23;2.40;99.90
3816;DHT22;1923;48.154;11.536;2023-01-28T13:14:52;2.30;99.90
3816;DHT22;1923;48.154;11.536;2023-01-28T13:17:26;2.40;99.90
3816;DHT22;1923;48.154;11.536;2023-01-28T13:19:56;2.50;99.90
3816;DHT22;1923;48.154;11.536;2023-01-28T13:22:27;2.50;99.90
3816;DHT22;1923;48.154;11.536;2023-01-28T13:24:56;2.70;99.90
3816;DHT22;1923;48.154;11.536;2023-01-28T13:27:27;2.50;99.90
3816;DHT22;1923;48.154;11.536;2023-01-28T13:30:18;2.70;99.90
3816;DHT22;1923;48.154;11.536;2023-01-28T13:32:55;2.80;99.90
3816;DHT22;1923;48.154;11.536;2023-01-28T13:35:32;2.80;99.90
3816;DHT22;1923;48.154;11.536;2023-01-28T13:38:07;2.70;99.90
3816;DHT22;1923;48.154;11.536;2023-01-28T13:40:37;2.80;99.90
3816;DHT22;1923;48.154;11.536;2023-01-28T13:43:25;2.70;99.90
3816;DHT22;1923;48.154;11.536;2023-01-28T13:45:55;2.90;99.90
3816;DHT22;1923;48.154;11.536;2023-01-28T13:48:30;2.90;99.90
3816;DHT22;1923;48.154;11.536;2023-01-28T13:50:59;3.00;99.90
3816;DHT22;1923;48.154;11.536;2023-01-28T13:53:38;3.10;99.90
3816;DHT22;1923;48.154;11.536;2023-01-28T13:56:18;3.10;99.90
3816;DHT22;1923;48.154;11.536;2023-01-28T13:59:10;3.10;99.90
3816;DHT22;1923;48.154;11.536;2023-01-28T14:08:29;2.70;99.90
3816;DHT22;1923;48.154;11.536;2023-01-28T14:11:27;2.70;99.90
3816;DHT22;1923;48.154;11.536;2023-01-28T14:17:26;2.90;99.90
3816;DHT22;1923;48.154;11.536;2023-01-28T14:19:58;2.90;99.90
3816;DHT22;1923;48.154;11.536;2023-01-28T14:22:27;2.60;99.90
3816;DHT22;1923;48.154;11.536;2023-01-28T14:24:59;2.70;99.90
3816;DHT22;1923;48.154;11.536;2023-01-28T14:27:31;2.80;99.90
3816;DHT22;1923;48.154;11.536;2023-01-28T14:30:09;2.80;99.90
3816;DHT22;1923;48.154;11.536;2023-01-28T14:32:45;2.70;99.90
3816;DHT22;1923;48.154;11.536;2023-01-28T14:35:18;2.60;99.90
3816;DHT22;1923;48.154;11.536;2023-01-28T14:37:47;2.50;99.90
3816;DHT22;1923;48.154;11.536;2023-01-28T14:40:15;2.50;99.90
3816;DHT22;1923;48.154;11.536;2023-01-28T14:42:46;2.50;99.90
3816;DHT22;1923;48.154;11.536;2023-01-28T14:45:48;2.40;99.90
3816;DHT22;1923;48.154;11.536;2023-01-28T14:48:23;2.60;99.90
3816;DHT22;1923;48.154;11.536;2023-01-28T14:51:10;2.70;99.90
3816;DHT22;1923;48.154;11.536;2023-01-28T14:53:55;2.70;99.90
3816;DHT22;1923;48.154;11.536;2023-01-28T14:56:35;2.60;99.90
3816;DHT22;1923;48.154;11.536;2023-01-28T14:59:15;2.70;99.90
3816;DHT22;1923;48.154;11.536;2023-01-28T15:01:47;2.70;99.90
3816;DHT22;1923;48.154;11.536;2023-01-28T15:04:23;2.70;99.90
3816;DHT22;1923;48.154;11.536;2023-01-28T15:06:52;2.70;99.90
3816;DHT22;1923;48.154;11.536;2023-01-28T15:09:21;2.70;99.90
3816;DHT22;1923;48.154;11.536;2023-01-28T15:11:52;2.80;99.90
3816;DHT22;1923;48.154;11.536;2023-01-28T15:14:29;2.80;99.90
3816;DHT22;1923;48.154;11.536;2023-01-28T15:16:59;2.70;99.90
3816;DHT22;1923;48.154;11.536;2023-01-28T15:19:30;2.70;99.90
3816;DHT22;1923;48.154;11.536;2023-01-28T15:22:01;2.80;99.90
3816;DHT22;1923;48.154;11.536;2023-01-28T15:24:30;2.80;99.90
3816;DHT22;1923;48.154;11.536;2023-01-28T15:26:58;2.80;99.90
3816;DHT22;1923;48.154;11.536;2023-01-28T15:29:31;2.70;99.90
3816;DHT22;1923;48.154;11.536;2023-01-28T15:32:01;2.80;99.90
3816;DHT22;1923;48.154;11.536;2023-01-28T15:34:30;2.60;99.90
3816;DHT22;1923;48.154;11.536;2023-01-28T15:36:59;2.70;99.90
3816;DHT22;1923;48.154;11.536;2023-01-28T15:39:28;2.60;99.90
3816;DHT22;1923;48.154;11.536;2023-01-28T15:41:59;2.50;99.90
3816;DHT22;1923;48.154;11.536;2023-01-28T15:44:31;2.40;99.90
3816;DHT22;1923;48.154;11.536;2023-01-28T15:47:03;2.50;99.90
3816;DHT22;1923;48.154;11.536;2023-01-28T15:49:44;2.50;99.90
3816;DHT22;1923;48.154;11.536;2023-01-28T15:52:13;2.50;99.90
3816;DHT22;1923;48.154;11.536;2023-01-28T15:54:44;2.30;99.90
3816;DHT22;1923;48.154;11.536;2023-01-28T15:57:18;2.30;99.90
3816;DHT22;1923;48.154;11.536;2023-01-28T15:59:46;2.50;99.90
3816;DHT22;1923;48.154;11.536;2023-01-28T16:02:20;2.40;99.90
3816;DHT22;1923;48.154;11.536;2023-01-28T16:04:58;2.40;99.90
3816;DHT22;1923;48.154;11.536;2023-01-28T16:07:28;2.40;99.90
3816;DHT22;1923;48.154;11.536;2023-01-28T16:09:58;2.40;99.90
3816;DHT22;1923;48.154;11.536;2023-01-28T16:12:27;2.30;99.90
3816;DHT22;1923;48.154;11.536;2023-01-28T16:14:56;2.40;99.90
3816;DHT22;1923;48.154;11.536;2023-01-28T16:17:29;2.50;99.90
3816;DHT22;1923;48.154;11.536;2023-01-28T16:20:00;2.30;99.90
3816;DHT22;1923;48.154;11.536;2023-01-28T16:22:32;2.40;99.90
3816;DHT22;1923;48.154;11.536;2023-01-28T16:25:02;2.40;99.90
3816;DHT22;1923;48.154;11.536;2023-01-28T16:27:30;2.30;99.90
3816;DHT22;1923;48.154;11.536;2023-01-28T16:29:58;2.20;99.90
3816;DHT22;1923;48.154;11.536;2023-01-28T16:32:33;2.20;99.90
3816;DHT22;1923;48.154;11.536;2023-01-28T16:35:02;2.30;99.90
3816;DHT22;1923;48.154;11.536;2023-01-28T16:37:30;2.20;99.90
3816;DHT22;1923;48.154;11.536;2023-01-28T16:39:58;2.10;99.90
3816;DHT22;1923;48.154;11.536;2023-01-28T16:42:29;2.10;99.90
3816;DHT22;1923;48.154;11.536;2023-01-28T16:44:58;2.20;99.90
3816;DHT22;1923;48.154;11.536;2023-01-28T16:47:26;2.10;99.90
3816;DHT22;1923;48.154;11.536;2023-01-28T16:49:55;2.10;99.90
3816;DHT22;1923;48.154;11.536;2023-01-28T16:52:23;2.00;99.90